sensor_id;sensor_type;location;lat;lon;timestamp;pressure;altitude;pressure_sealevel;temperature;humidity
27425;BME280;15244;49.088;11.886;2023-02-18T00:03:50;96434.84;;;12.17;58.90
27425;BME280;15244;49.088;11.886;2023-02-18T00:08:52;96436.88;;;12.24;58.63
27425;BME280;15244;49.088;11.886;2023-02-18T00:13:56;96429.47;;;12.28;58.61
27425;BME280;15244;49.088;11.886;2023-02-18T00:19:01;96435.34;;;12.30;58.74
27425;BME280;15244;49.088;11.886;2023-02-18T00:24:04;96443.91;;;12.25;59.01
27425;BME280;15244;49.088;11.886;2023-02-18T00:29:06;96434.22;;;12.31;58.78
27425;BME280;15244;49.088;11.886;2023-02-18T00:34:09;96430.31;;;12.35;58.43
27425;BME280;15244;49.088;11.886;2023-02-18T00:39:11;96441.25;;;12.35;58.75
27425;BME280;15244;49.088;11.886;2023-02-18T00:44:14;96443.91;;;12.25;59.02
27425;BME280;15244;49.088;11.886;2023-02-18T00:49:16;96437.66;;;12.28;58.75
27425;BME280;15244;49.088;11.886;2023-02-18T00:54:17;96457.13;;;12.19;58.63
27425;BME280;15244;49.088;11.886;2023-02-18T00:59:19;96422.72;;;12.14;58.94
27425;BME280;15244;49.088;11.886;2023-02-18T01:04:21;96426.38;;;12.29;58.95
27425;BME280;15244;49.088;11.886;2023-02-18T01:09:23;96427.94;;;12.30;58.78
27425;BME280;15244;49.088;11.886;2023-02-18T01:14:26;96424.41;;;12.30;58.51
27425;BME280;15244;49.088;11.886;2023-02-18T01:19:27;96418.19;;;12.33;58.61
27425;BME280;15244;49.088;11.886;2023-02-18T01:24:29;96427.19;;;12.33;58.57
27425;BME280;15244;49.088;11.886;2023-02-18T01:29:30;96423.28;;;12.31;58.56
27425;BME280;15244;49.088;11.886;2023-02-18T01:34:32;96420.41;;;12.20;58.50
27425;BME280;15244;49.088;11.886;2023-02-18T01:39:34;96423.63;;;12.26;58.61
27425;BME280;15244;49.088;11.886;2023-02-18T01:44:35;96417.81;;;12.31;58.42
27425;BME280;15244;49.088;11.886;2023-02-18T01:49:37;96414.59;;;12.25;58.65
27425;BME280;15244;49.088;11.886;2023-02-18T01:54:43;96404.00;;;12.17;58.77
27425;BME280;15244;49.088;11.886;2023-02-18T02:00:04;96419.22;;;12.18;58.87
27425;BME280;15244;49.088;11.886;2023-02-18T02:05:15;96400.91;;;12.18;58.76
27425;BME280;15244;49.088;11.886;2023-02-18T02:10:17;96413.38;;;12.19;58.84
27425;BME280;15244;49.088;11.886;2023-02-18T02:15:33;96384.03;;;12.12;58.99
27425;BME280;15244;49.088;11.886;2023-02-18T02:48:02;96375.81;;;12.09;59.13
27425;BME280;15244;49.088;11.886;2023-02-18T02:53:22;96356.31;;;12.10;59.36
27425;BME280;15244;49.088;11.886;2023-02-18T02:58:26;96360.19;;;12.09;59.29
27425;BME280;15244;49.088;11.886;2023-02-18T03:09:04;96372.25;;;12.05;59.14
27425;BME280;15244;49.088;11.886;2023-02-18T03:14:26;96340.63;;;12.04;59.37
27425;BME280;15244;49.088;11.886;2023-02-18T03:19:39;96349.63;;;12.04;59.36
27425;BME280;15244;49.088;11.886;2023-02-18T03:24:48;96349.31;;;12.13;59.19
27425;BME280;15244;49.088;11.886;2023-02-18T03:30:04;96363.34;;;12.11;59.01
27425;BME280;15244;49.088;11.886;2023-02-18T03:35:12;96365.66;;;12.06;58.93
27425;BME280;15244;49.088;11.886;2023-02-18T03:40:16;96344.47;;;11.96;59.27
27425;BME280;15244;49.088;11.886;2023-02-18T03:45:18;96355.44;;;11.99;59.42
27425;BME280;15244;49.088;11.886;2023-02-18T03:50:19;96352.41;;;12.08;59.30
27425;BME280;15244;49.088;11.886;2023-02-18T03:55:21;96355.91;;;12.12;59.16
27425;BME280;15244;49.088;11.886;2023-02-18T04:00:22;96347.31;;;12.10;59.10
27425;BME280;15244;49.088;11.886;2023-02-18T04:05:24;96357.44;;;12.06;59.18
27425;BME280;15244;49.088;11.886;2023-02-18T04:10:26;96363.22;;;11.97;59.31
27425;BME280;15244;49.088;11.886;2023-02-18T04:15:27;96365.56;;;11.95;59.60
27425;BME280;15244;49.088;11.886;2023-02-18T04:20:29;96365.56;;;11.99;59.77
27425;BME280;15244;49.088;11.886;2023-02-18T04:25:32;96359.69;;;11.97;59.56
27425;BME280;15244;49.088;11.886;2023-02-18T04:30:33;96355.81;;;11.98;59.64
27425;BME280;15244;49.088;11.886;2023-02-18T04:35:35;96365.22;;;12.04;59.37
27425;BME280;15244;49.088;11.886;2023-02-18T04:40:37;96369.06;;;11.96;59.52
27425;BME280;15244;49.088;11.886;2023-02-18T04:45:39;96357.84;;;12.08;59.10
27425;BME280;15244;49.088;11.886;2023-02-18T04:50:40;96361.78;;;12.10;59.46
27425;BME280;15244;49.088;11.886;2023-02-18T04:55:42;96352.78;;;12.10;59.13
27425;BME280;15244;49.088;11.886;2023-02-18T05:00:44;96368.69;;;11.97;59.46
27425;BME280;15244;49.088;11.886;2023-02-18T05:05:45;96356.19;;;11.96;59.85
27425;BME280;15244;49.088;11.886;2023-02-18T05:10:47;96361.22;;;11.90;60.12
27425;BME280;15244;49.088;11.886;2023-02-18T05:15:49;96365.16;;;11.93;59.70
27425;BME280;15244;49.088;11.886;2023-02-18T05:20:50;96361.66;;;11.96;59.50
27425;BME280;15244;49.088;11.886;2023-02-18T05:25:53;96379.59;;;11.97;59.68
27425;BME280;15244;49.088;11.886;2023-02-18T05:30:55;96371.38;;;11.93;59.59
27425;BME280;15244;49.088;11.886;2023-02-18T05:35:56;96376.06;;;11.93;59.69
27425;BME280;15244;49.088;11.886;2023-02-18T05:40:58;96365.03;;;11.86;59.65
27425;BME280;15244;49.088;11.886;2023-02-18T05:45:59;96372.56;;;11.92;59.81
27425;BME280;15244;49.088;11.886;2023-02-18T05:51:01;96366.75;;;11.98;59.21
27425;BME280;15244;49.088;11.886;2023-02-18T05:56:03;96355.41;;;11.96;59.29
27425;BME280;15244;49.088;11.886;2023-02-18T06:01:04;96348.34;;;11.95;59.22
27425;BME280;15244;49.088;11.886;2023-02-18T06:06:07;96349.19;;;11.99;59.32
27425;BME280;15244;49.088;11.886;2023-02-18T06:11:09;96360.13;;;12.02;59.46
27425;BME280;15244;49.088;11.886;2023-02-18T06:16:10;96358.16;;;11.99;59.70
27425;BME280;15244;49.088;11.886;2023-02-18T06:21:12;96376.84;;;11.93;59.40
27425;BME280;15244;49.088;11.886;2023-02-18T06:26:14;96371.38;;;11.93;59.69
27425;BME280;15244;49.088;11.886;2023-02-18T06:31:15;96371.81;;;11.96;59.66
27425;BME280;15244;49.088;11.886;2023-02-18T06:36:17;96371.41;;;11.97;59.61
27425;BME280;15244;49.088;11.886;2023-02-18T06:41:19;96379.94;;;11.92;59.92
27425;BME280;15244;49.088;11.886;2023-02-18T06:46:20;96380.72;;;11.89;59.79
27425;BME280;15244;49.088;11.886;2023-02-18T06:51:22;96372.03;;;11.83;60.12
27425;BME280;15244;49.088;11.886;2023-02-18T06:56:23;96369.69;;;11.82;60.13
27425;BME280;15244;49.088;11.886;2023-02-18T07:01:25;96367.28;;;11.77;59.93
27425;BME280;15244;49.088;11.886;2023-02-18T07:06:26;96363.44;;;11.81;60.21
27425;BME280;15244;49.088;11.886;2023-02-18T07:11:28;96377.88;;;11.82;60.47
27425;BME280;15244;49.088;11.886;2023-02-18T07:16:29;96346.59;;;11.76;60.61
27425;BME280;15244;49.088;11.886;2023-02-18T07:21:31;96341.50;;;11.74;60.88
27425;BME280;15244;49.088;11.886;2023-02-18T07:26:33;96337.22;;;11.73;60.90
27425;BME280;15244;49.088;11.886;2023-02-18T07:31:34;96317.69;;;11.71;60.35
27425;BME280;15244;49.088;11.886;2023-02-18T07:36:36;96316.50;;;11.72;60.95
27425;BME280;15244;49.088;11.886;2023-02-18T07:41:39;96320.75;;;11.66;60.45
27425;BME280;15244;49.088;11.886;2023-02-18T07:46:48;96319.22;;;11.68;60.82
27425;BME280;15244;49.088;11.886;2023-02-18T07:51:50;96313.31;;;11.63;60.80
27425;BME280;15244;49.088;11.886;2023-02-18T07:56:52;96319.91;;;11.58;60.86
27425;BME280;15244;49.088;11.886;2023-02-18T08:01:55;96322.66;;;11.62;60.76
27425;BME280;15244;49.088;11.886;2023-02-18T08:06:56;96324.69;;;11.68;60.43
27425;BME280;15244;49.088;11.886;2023-02-18T08:11:58;96333.72;;;11.76;60.20
27425;BME280;15244;49.088;11.886;2023-02-18T08:17:00;96317.34;;;11.80;59.82
27425;BME280;15244;49.088;11.886;2023-02-18T08:22:02;96306.06;;;11.81;59.80
27425;BME280;15244;49.088;11.886;2023-02-18T08:27:03;96312.72;;;11.84;59.59
27425;BME280;15244;49.088;11.886;2023-02-18T08:32:05;96307.72;;;11.89;59.20
27425;BME280;15244;49.088;11.886;2023-02-18T08:37:06;96300.78;;;11.99;58.90
27425;BME280;15244;49.088;11.886;2023-02-18T08:42:08;96287.94;;;12.03;58.84
27425;BME280;15244;49.088;11.886;2023-02-18T08:47:10;96285.59;;;12.05;58.87
27425;BME280;15244;49.088;11.886;2023-02-18T08:52:31;96289.56;;;12.15;58.44
27425;BME280;15244;49.088;11.886;2023-02-18T08:57:33;96279.03;;;12.13;57.74
27425;BME280;15244;49.088;11.886;2023-02-18T09:02:34;96271.25;;;12.23;57.28
27425;BME280;15244;49.088;11.886;2023-02-18T09:07:36;96272.44;;;12.25;57.27
27425;BME280;15244;49.088;11.886;2023-02-18T09:12:38;96288.13;;;12.35;57.12
27425;BME280;15244;49.088;11.886;2023-02-18T09:17:39;96272.16;;;12.41;56.71
27425;BME280;15244;49.088;11.886;2023-02-18T09:22:41;96257.38;;;12.53;56.66
27425;BME280;15244;49.088;11.886;2023-02-18T09:27:42;96273.78;;;12.53;56.21
27425;BME280;15244;49.088;11.886;2023-02-18T09:32:44;96264.03;;;12.52;56.11
27425;BME280;15244;49.088;11.886;2023-02-18T09:37:45;96245.69;;;12.63;55.77
27425;BME280;15244;49.088;11.886;2023-02-18T09:42:50;96249.25;;;12.71;55.65
27425;BME280;15244;49.088;11.886;2023-02-18T09:47:54;96225.47;;;12.82;55.84
27425;BME280;15244;49.088;11.886;2023-02-18T09:53:01;96220.78;;;12.86;55.67
27425;BME280;15244;49.088;11.886;2023-02-18T09:58:12;96211.03;;;12.89;55.46
27425;BME280;15244;49.088;11.886;2023-02-18T10:03:23;96201.28;;;12.91;55.52
27425;BME280;15244;49.088;11.886;2023-02-18T10:08:37;96205.56;;;12.96;55.28
27425;BME280;15244;49.088;11.886;2023-02-18T10:13:40;96213.00;;;12.95;55.34
27425;BME280;15244;49.088;11.886;2023-02-18T10:18:44;96208.69;;;12.94;55.04
27425;BME280;15244;49.088;11.886;2023-02-18T10:23:58;96203.19;;;12.91;54.50
27425;BME280;15244;49.088;11.886;2023-02-18T10:29:01;96199.72;;;13.05;54.92
27425;BME280;15244;49.088;11.886;2023-02-18T10:34:18;96196.63;;;13.17;54.94
27425;BME280;15244;49.088;11.886;2023-02-18T10:50:43;96187.69;;;13.27;54.49
27425;BME280;15244;49.088;11.886;2023-02-18T10:55:41;96202.91;;;13.28;53.77
27425;BME280;15244;49.088;11.886;2023-02-18T11:00:44;96169.69;;;13.37;53.68
27425;BME280;15244;49.088;11.886;2023-02-18T11:05:47;96166.53;;;13.38;53.41
27425;BME280;15244;49.088;11.886;2023-02-18T11:10:50;96163.41;;;13.33;53.00
27425;BME280;15244;49.088;11.886;2023-02-18T11:16:04;96142.69;;;13.39;52.71
27425;BME280;15244;49.088;11.886;2023-02-18T11:21:20;96142.69;;;13.35;52.52
27425;BME280;15244;49.088;11.886;2023-02-18T11:26:28;96136.03;;;13.47;52.34
27425;BME280;15244;49.088;11.886;2023-02-18T11:31:39;96109.44;;;13.40;52.17
27425;BME280;15244;49.088;11.886;2023-02-18T11:36:42;96114.50;;;13.49;52.38
27425;BME280;15244;49.088;11.886;2023-02-18T11:41:47;96120.38;;;13.55;52.17
27425;BME280;15244;49.088;11.886;2023-02-18T11:47:00;96106.69;;;13.51;51.53
27425;BME280;15244;49.088;11.886;2023-02-18T11:52:26;96083.16;;;13.64;52.05
27425;BME280;15244;49.088;11.886;2023-02-18T11:57:28;96096.09;;;13.57;51.31
27425;BME280;15244;49.088;11.886;2023-02-18T12:02:35;96079.28;;;13.58;50.91
27425;BME280;15244;49.088;11.886;2023-02-18T12:07:45;96067.94;;;13.49;50.96
27425;BME280;15244;49.088;11.886;2023-02-18T12:18:20;96057.75;;;13.53;51.13
27425;BME280;15244;49.088;11.886;2023-02-18T12:23:41;96071.84;;;13.52;50.75
27425;BME280;15244;49.088;11.886;2023-02-18T12:29:01;96081.63;;;13.53;50.90
27425;BME280;15244;49.088;11.886;2023-02-18T12:50:28;96044.03;;;13.64;50.74
27425;BME280;15244;49.088;11.886;2023-02-18T13:01:10;96049.88;;;13.70;50.78
27425;BME280;15244;49.088;11.886;2023-02-18T13:16:30;96036.19;;;13.80;50.23
27425;BME280;15244;49.088;11.886;2023-02-18T13:21:34;96024.03;;;13.78;50.08
27425;BME280;15244;49.088;11.886;2023-02-18T13:26:39;96024.00;;;13.88;50.03
27425;BME280;15244;49.088;11.886;2023-02-18T13:37:54;96017.34;;;13.86;49.34
27425;BME280;15244;49.088;11.886;2023-02-18T13:43:36;96012.63;;;13.94;49.44
27425;BME280;15244;49.088;11.886;2023-02-18T13:48:45;96020.03;;;14.00;49.16
27425;BME280;15244;49.088;11.886;2023-02-18T13:53:51;96031.03;;;13.93;48.63
27425;BME280;15244;49.088;11.886;2023-02-18T13:59:07;96026.66;;;14.06;48.90
27425;BME280;15244;49.088;11.886;2023-02-18T14:09:42;96010.69;;;13.91;48.69
27425;BME280;15244;49.088;11.886;2023-02-18T14:14:45;96016.50;;;14.03;48.92
27425;BME280;15244;49.088;11.886;2023-02-18T14:25:23;95988.72;;;13.98;48.60
27425;BME280;15244;49.088;11.886;2023-02-18T14:30:41;96020.00;;;14.11;48.59
27425;BME280;15244;49.088;11.886;2023-02-18T14:35:52;96003.97;;;14.06;48.48
27425;BME280;15244;49.088;11.886;2023-02-18T14:41:08;96006.72;;;13.99;48.35
27425;BME280;15244;49.088;11.886;2023-02-18T14:51:47;96025.16;;;13.91;48.49
27425;BME280;15244;49.088;11.886;2023-02-18T14:56:58;95982.09;;;13.92;48.64
27425;BME280;15244;49.088;11.886;2023-02-18T15:02:00;96020.88;;;13.90;48.64
27425;BME280;15244;49.088;11.886;2023-02-18T15:07:07;96029.53;;;13.78;48.66
27425;BME280;15244;49.088;11.886;2023-02-18T15:12:15;96001.00;;;13.61;49.06
27425;BME280;15244;49.088;11.886;2023-02-18T15:17:23;95986.53;;;13.60;49.02
27425;BME280;15244;49.088;11.886;2023-02-18T15:22:30;95988.03;;;13.76;49.45
27425;BME280;15244;49.088;11.886;2023-02-18T15:27:38;96005.28;;;13.69;49.30
27425;BME280;15244;49.088;11.886;2023-02-18T15:32:44;96019.81;;;13.55;49.55
27425;BME280;15244;49.088;11.886;2023-02-18T15:37:53;96022.56;;;13.44;49.89
27425;BME280;15244;49.088;11.886;2023-02-18T15:42:57;95991.22;;;13.60;49.70
27425;BME280;15244;49.088;11.886;2023-02-18T15:47:59;95976.44;;;13.39;50.09
27425;BME280;15244;49.088;11.886;2023-02-18T15:53:13;96036.63;;;13.47;50.37
27425;BME280;15244;49.088;11.886;2023-02-18T15:58:28;96011.19;;;13.57;50.07
27425;BME280;15244;49.088;11.886;2023-02-18T16:03:49;96021.34;;;13.63;50.10
27425;BME280;15244;49.088;11.886;2023-02-18T16:14:28;96024.13;;;13.53;50.20
27425;BME280;15244;49.088;11.886;2023-02-18T16:19:30;96051.91;;;13.55;50.36
27425;BME280;15244;49.088;11.886;2023-02-18T16:24:39;96042.88;;;13.58;50.65
27425;BME280;15244;49.088;11.886;2023-02-18T16:29:42;96040.94;;;13.51;50.46
27425;BME280;15244;49.088;11.886;2023-02-18T16:34:44;96027.63;;;13.60;50.31
27425;BME280;15244;49.088;11.886;2023-02-18T16:39:49;96066.00;;;13.46;50.83
27425;BME280;15244;49.088;11.886;2023-02-18T16:44:54;96091.84;;;13.27;51.37
27425;BME280;15244;49.088;11.886;2023-02-18T16:49:56;96076.94;;;13.21;52.08
27425;BME280;15244;49.088;11.886;2023-02-18T16:54:59;96086.72;;;13.26;51.78
27425;BME280;15244;49.088;11.886;2023-02-18T17:00:00;96102.00;;;13.30;52.01
27425;BME280;15244;49.088;11.886;2023-02-18T17:05:02;96093.78;;;13.27;52.05
27425;BME280;15244;49.088;11.886;2023-02-18T17:10:08;96095.69;;;13.19;52.80
27425;BME280;15244;49.088;11.886;2023-02-18T17:20:25;96110.56;;;13.18;52.80
27425;BME280;15244;49.088;11.886;2023-02-18T17:25:36;96123.09;;;13.15;53.10
27425;BME280;15244;49.088;11.886;2023-02-18T17:30:40;96128.94;;;13.03;53.68
27425;BME280;15244;49.088;11.886;2023-02-18T17:35:43;96129.72;;;13.00;53.72
27425;BME280;15244;49.088;11.886;2023-02-18T17:40:45;96166.47;;;12.95;53.99
27425;BME280;15244;49.088;11.886;2023-02-18T17:45:52;96146.91;;;12.83;54.33
27425;BME280;15244;49.088;11.886;2023-02-18T17:50:55;96150.41;;;12.79;54.63
27425;BME280;15244;49.088;11.886;2023-02-18T17:55:56;96151.19;;;12.76;54.96
27425;BME280;15244;49.088;11.886;2023-02-18T18:00:58;96146.91;;;12.79;55.05
27425;BME280;15244;49.088;11.886;2023-02-18T18:06:00;96160.97;;;12.74;55.14
27425;BME280;15244;49.088;11.886;2023-02-18T18:11:02;96146.84;;;12.68;55.39
27425;BME280;15244;49.088;11.886;2023-02-18T18:16:09;96159.34;;;12.58;55.58
27425;BME280;15244;49.088;11.886;2023-02-18T18:21:28;96162.44;;;12.50;55.69
27425;BME280;15244;49.088;11.886;2023-02-18T18:26:31;96163.16;;;12.40;55.81
27425;BME280;15244;49.088;11.886;2023-02-18T18:31:33;96164.31;;;12.31;56.03
27425;BME280;15244;49.088;11.886;2023-02-18T18:36:36;96180.28;;;12.22;56.19
27425;BME280;15244;49.088;11.886;2023-02-18T18:41:38;96172.84;;;12.19;56.07
27425;BME280;15244;49.088;11.886;2023-02-18T18:46:40;96175.13;;;12.10;56.06
27425;BME280;15244;49.088;11.886;2023-02-18T18:51:41;96172.38;;;12.03;56.32
27425;BME280;15244;49.088;11.886;2023-02-18T18:56:46;96182.50;;;12.02;55.81
27425;BME280;15244;49.088;11.886;2023-02-18T19:01:50;96188.72;;;11.99;55.87
27425;BME280;15244;49.088;11.886;2023-02-18T19:06:52;96187.19;;;11.98;56.12
27425;BME280;15244;49.088;11.886;2023-02-18T19:11:54;96190.28;;;11.93;56.33
27425;BME280;15244;49.088;11.886;2023-02-18T19:16:56;96182.44;;;11.88;56.64
27425;BME280;15244;49.088;11.886;2023-02-18T19:21:58;96176.19;;;11.91;56.29
27425;BME280;15244;49.088;11.886;2023-02-18T19:26:59;96189.84;;;11.91;56.67
27425;BME280;15244;49.088;11.886;2023-02-18T19:32:01;96197.69;;;11.92;56.57
27425;BME280;15244;49.088;11.886;2023-02-18T19:37:03;96202.38;;;11.96;56.63
27425;BME280;15244;49.088;11.886;2023-02-18T19:42:05;96187.47;;;11.86;56.69
27425;BME280;15244;49.088;11.886;2023-02-18T19:47:06;96178.06;;;11.83;56.98
27425;BME280;15244;49.088;11.886;2023-02-18T19:52:10;96193.22;;;11.70;57.11
27425;BME280;15244;49.088;11.886;2023-02-18T19:57:13;96188.56;;;11.78;57.01
27425;BME280;15244;49.088;11.886;2023-02-18T20:02:23;96202.59;;;11.73;56.97
27425;BME280;15244;49.088;11.886;2023-02-18T20:07:26;96206.44;;;11.68;56.78
27425;BME280;15244;49.088;11.886;2023-02-18T20:12:28;96202.13;;;11.67;56.84
27425;BME280;15244;49.088;11.886;2023-02-18T20:17:30;96217.28;;;11.57;56.97
27425;BME280;15244;49.088;11.886;2023-02-18T20:22:32;96201.25;;;11.52;57.33
27425;BME280;15244;49.088;11.886;2023-02-18T20:27:33;96202.84;;;11.57;56.77
27425;BME280;15244;49.088;11.886;2023-02-18T20:32:40;96196.94;;;11.51;57.23
27425;BME280;15244;49.088;11.886;2023-02-18T20:37:42;96202.03;;;11.53;56.72
27425;BME280;15244;49.088;11.886;2023-02-18T20:42:43;96203.69;;;11.64;56.85
27425;BME280;15244;49.088;11.886;2023-02-18T20:47:45;96212.63;;;11.58;56.92
27425;BME280;15244;49.088;11.886;2023-02-18T20:52:47;96198.19;;;11.57;56.95
27425;BME280;15244;49.088;11.886;2023-02-18T20:57:48;96197.41;;;11.60;56.68
27425;BME280;15244;49.088;11.886;2023-02-18T21:02:50;96191.56;;;11.62;56.37
27425;BME280;15244;49.088;11.886;2023-02-18T21:07:52;96199.75;;;11.62;56.60
27425;BME280;15244;49.088;11.886;2023-02-18T21:12:53;96187.97;;;11.50;56.50
27425;BME280;15244;49.088;11.886;2023-02-18T21:17:57;96197.34;;;11.49;56.48
27425;BME280;15244;49.088;11.886;2023-02-18T21:22:59;96200.84;;;11.50;56.36
27425;BME280;15244;49.088;11.886;2023-02-18T21:28:01;96190.28;;;11.45;56.46
27425;BME280;15244;49.088;11.886;2023-02-18T21:33:03;96189.47;;;11.41;56.51
27425;BME280;15244;49.088;11.886;2023-02-18T21:38:06;96184.75;;;11.38;56.30
27425;BME280;15244;49.088;11.886;2023-02-18T21:43:08;96201.19;;;11.45;56.67
27425;BME280;15244;49.088;11.886;2023-02-18T21:48:11;96192.66;;;11.50;56.34
27425;BME280;15244;49.088;11.886;2023-02-18T21:53:33;96199.59;;;11.40;56.52
27425;BME280;15244;49.088;11.886;2023-02-18T21:58:35;96200.69;;;11.32;56.51
27425;BME280;15244;49.088;11.886;2023-02-18T22:03:37;96185.91;;;11.37;56.31
27425;BME280;15244;49.088;11.886;2023-02-18T22:08:38;96185.50;;;11.35;56.34
27425;BME280;15244;49.088;11.886;2023-02-18T22:13:42;96186.66;;;11.34;56.59
27425;BME280;15244;49.088;11.886;2023-02-18T22:18:44;96205.75;;;11.30;56.23
27425;BME280;15244;49.088;11.886;2023-02-18T22:23:46;96196.03;;;11.33;56.24
27425;BME280;15244;49.088;11.886;2023-02-18T22:28:55;96203.09;;;11.41;56.21
27425;BME280;15244;49.088;11.886;2023-02-18T22:33:58;96193.25;;;11.29;56.07
27425;BME280;15244;49.088;11.886;2023-02-18T22:39:01;96183.50;;;11.32;56.53
27425;BME280;15244;49.088;11.886;2023-02-18T22:44:05;96171.38;;;11.25;56.62
27425;BME280;15244;49.088;11.886;2023-02-18T22:49:07;96175.38;;;11.35;56.03
27425;BME280;15244;49.088;11.886;2023-02-18T22:54:14;96174.53;;;11.31;56.08
27425;BME280;15244;49.088;11.886;2023-02-18T22:59:17;96171.03;;;11.31;56.35
27425;BME280;15244;49.088;11.886;2023-02-18T23:04:20;96176.47;;;11.27;56.59
27425;BME280;15244;49.088;11.886;2023-02-18T23:09:23;96160.53;;;11.33;56.12
27425;BME280;15244;49.088;11.886;2023-02-18T23:14:25;96166.78;;;11.37;56.29
27425;BME280;15244;49.088;11.886;2023-02-18T23:19:30;96157.88;;;11.40;56.27
27425;BME280;15244;49.088;11.886;2023-02-18T23:24:38;96164.88;;;11.37;56.27
27425;BME280;15244;49.088;11.886;2023-02-18T23:29:40;96135.56;;;11.34;56.49
27425;BME280;15244;49.088;11.886;2023-02-18T23:34:42;96145.31;;;11.32;56.72
27425;BME280;15244;49.088;11.886;2023-02-18T23:39:46;96139.09;;;11.35;55.93
27425;BME280;15244;49.088;11.886;2023-02-18T23:44:48;96136.38;;;11.35;56.36
27425;BME280;15244;49.088;11.886;2023-02-18T23:49:53;96135.56;;;11.31;56.49
27425;BME280;15244;49.088;11.886;2023-02-18T23:54:55;96130.09;;;11.31;56.53
27425;BME280;15244;49.088;11.886;2023-02-18T23:59:56;96122.69;;;11.31;56.84
